createdAt,value
2023-01-11T00:00:25.777Z,2.03
2023-01-11T00:02:59.933Z,2.33
2023-01-11T00:05:26.575Z,2.70
2023-01-11T00:07:53.279Z,5.57
2023-01-11T00:10:20.026Z,2.22
2023-01-11T00:12:47.071Z,0.75
2023-01-11T00:15:13.884Z,0.45
2023-01-11T00:17:41.544Z,1.08
2023-01-11T00:20:10.092Z,1.98
2023-01-11T00:22:36.915Z,4.30
2023-01-11T00:25:03.965Z,3.50
2023-01-11T00:27:30.661Z,3.03
2023-01-11T00:29:57.390Z,1.17
2023-01-11T00:32:24.246Z,2.70
2023-01-11T00:34:50.967Z,3.53
2023-01-11T00:37:17.562Z,2.45
2023-01-11T00:39:44.209Z,2.13
2023-01-11T00:42:32.168Z,3.65
2023-01-11T00:45:17.666Z,4.07
2023-01-11T00:48:01.000Z,4.50
2023-01-11T00:50:30.244Z,2.80
2023-01-11T00:52:57.647Z,1.23
2023-01-11T00:55:24.451Z,2.05
2023-01-11T00:57:51.140Z,1.48
2023-01-11T01:00:19.052Z,1.05
2023-01-11T01:02:46.087Z,0.75
2023-01-11T01:05:12.831Z,1.95
2023-01-11T01:07:39.515Z,0.90
2023-01-11T01:10:08.063Z,0.28
2023-01-11T01:12:53.576Z,0.85
2023-01-11T01:15:20.443Z,0.30
2023-01-11T01:17:47.258Z,0.63
2023-01-11T01:20:14.827Z,1.80
2023-01-11T01:22:41.883Z,0.65
2023-01-11T01:25:08.822Z,0.30
2023-01-11T01:27:35.583Z,0.40
2023-01-11T01:30:02.315Z,0.65
2023-01-11T01:32:29.015Z,0.73
2023-01-11T01:34:55.658Z,0.68
2023-01-11T01:37:22.249Z,0.40
2023-01-11T01:39:48.883Z,1.38
2023-01-11T01:42:16.745Z,0.75
2023-01-11T01:45:04.255Z,1.10
2023-01-11T01:47:38.697Z,2.80
2023-01-11T01:50:12.573Z,1.33
2023-01-11T01:52:39.225Z,2.00
2023-01-11T01:55:08.517Z,0.60
2023-01-11T01:57:35.594Z,2.63
2023-01-11T02:00:05.590Z,3.00
2023-01-11T02:02:32.229Z,6.97
2023-01-11T02:04:58.913Z,11.77
2023-01-11T02:07:28.887Z,5.68
2023-01-11T02:10:10.636Z,4.57
2023-01-11T02:12:40.489Z,4.78
2023-01-11T02:15:08.033Z,0.93
2023-01-11T02:17:34.697Z,3.38
2023-01-11T02:20:08.586Z,3.03
2023-01-11T02:25:32.086Z,5.00
2023-01-11T02:28:01.464Z,1.67
2023-01-11T02:30:46.914Z,2.10
2023-01-11T02:33:23.355Z,2.10
2023-01-11T02:36:13.624Z,1.52
2023-01-11T02:38:46.424Z,1.25
2023-01-11T02:41:59.226Z,2.58
2023-01-11T02:44:46.704Z,0.70
2023-01-11T02:47:24.863Z,1.02
2023-01-11T02:50:03.781Z,0.75
2023-01-11T02:53:01.263Z,0.50
2023-01-11T02:55:31.124Z,0.65
2023-01-11T02:57:58.974Z,0.50
2023-01-11T03:00:25.634Z,0.70
2023-01-11T03:03:08.223Z,0.38
2023-01-11T03:05:35.854Z,0.50
2023-01-11T03:08:05.498Z,3.20
2023-01-11T03:11:02.429Z,2.92
2023-01-11T03:13:39.452Z,4.72
2023-01-11T03:16:14.901Z,3.63
2023-01-11T03:19:06.078Z,1.33
2023-01-11T03:21:58.674Z,1.85
2023-01-11T03:24:33.860Z,2.63
2023-01-11T03:27:06.102Z,1.55
2023-01-11T03:29:49.555Z,1.23
2023-01-11T03:32:16.371Z,3.63
2023-01-11T03:34:55.175Z,4.13
2023-01-11T03:37:50.728Z,2.50
2023-01-11T03:40:22.886Z,1.92
2023-01-11T03:43:10.100Z,2.90
2023-01-11T03:45:47.455Z,1.60
2023-01-11T03:48:20.268Z,3.78
2023-01-11T03:50:46.962Z,2.13
2023-01-11T03:53:13.542Z,2.35
2023-01-11T03:55:41.583Z,1.70
2023-01-11T03:58:09.084Z,3.17
2023-01-11T04:00:36.347Z,8.43
2023-01-11T04:03:03.145Z,7.65
2023-01-11T04:05:29.796Z,2.08
2023-01-11T04:07:56.508Z,2.58
2023-01-11T04:10:23.335Z,1.35
2023-01-11T04:12:50.055Z,0.57
2023-01-11T04:15:16.893Z,1.02
2023-01-11T04:17:43.585Z,0.60
2023-01-11T04:20:10.724Z,0.50
2023-01-11T04:22:37.466Z,0.60
2023-01-11T04:25:04.386Z,10.63
2023-01-11T04:27:30.980Z,5.90
2023-01-11T04:29:57.675Z,3.05
2023-01-11T04:32:24.431Z,2.38
2023-01-11T04:34:51.131Z,4.18
2023-01-11T04:37:17.719Z,2.75
2023-01-11T04:39:44.387Z,8.10
2023-01-11T04:42:21.164Z,5.85
2023-01-11T04:44:49.062Z,8.25
2023-01-11T04:47:20.202Z,5.72
2023-01-11T04:49:47.090Z,7.00
2023-01-11T04:52:15.000Z,8.55
2023-01-11T04:54:41.775Z,12.23
2023-01-11T04:57:10.831Z,13.23
2023-01-11T04:59:37.516Z,13.45
2023-01-11T05:02:04.254Z,15.90
2023-01-11T05:04:31.046Z,11.88
2023-01-11T05:06:57.870Z,16.08
2023-01-11T05:09:24.441Z,10.35
2023-01-11T05:11:51.131Z,6.85
2023-01-11T05:14:17.980Z,3.45
2023-01-11T05:16:44.702Z,4.60
2023-01-11T05:19:11.642Z,123.25
2023-01-11T05:21:40.062Z,131.30
2023-01-11T05:24:08.443Z,42.05
2023-01-11T05:26:36.835Z,15.90
2023-01-11T05:29:05.728Z,20.02
2023-01-11T05:31:34.796Z,63.10
2023-01-11T05:34:01.514Z,15.43
2023-01-11T05:36:28.363Z,18.35
2023-01-11T05:38:55.723Z,34.20
2023-01-11T05:41:23.632Z,43.50
2023-01-11T05:44:09.296Z,39.95
2023-01-11T05:46:37.082Z,26.27
2023-01-11T05:49:03.885Z,24.73
2023-01-11T05:51:30.905Z,23.50
2023-01-11T05:53:57.825Z,24.02
2023-01-11T05:56:24.519Z,29.63
2023-01-11T05:58:51.338Z,65.93
2023-01-11T06:01:18.831Z,18.23
2023-01-11T06:03:45.837Z,14.80
2023-01-11T06:06:13.040Z,7.63
2023-01-11T06:08:39.669Z,8.00
2023-01-11T06:11:06.356Z,6.47
2023-01-11T06:13:33.962Z,2.10
2023-01-11T06:16:19.550Z,2.10
2023-01-11T06:18:48.332Z,1.80
2023-01-11T06:21:15.264Z,1.70
2023-01-11T06:23:44.153Z,4.78
2023-01-11T06:26:15.259Z,4.22
2023-01-11T06:28:42.095Z,4.53
2023-01-11T06:31:08.902Z,3.78
2023-01-11T06:33:36.301Z,1.48
2023-01-11T06:36:08.063Z,2.50
2023-01-11T06:38:35.239Z,1.50
2023-01-11T06:41:02.760Z,1.48
2023-01-11T06:43:29.641Z,1.23
2023-01-11T06:45:56.511Z,2.22
2023-01-11T06:48:23.434Z,11.20
2023-01-11T06:50:50.811Z,42.97
2023-01-11T06:53:17.419Z,35.72
2023-01-11T06:55:44.244Z,9.35
2023-01-11T06:58:10.926Z,3.08
2023-01-11T07:00:37.845Z,5.57
2023-01-11T07:03:05.304Z,13.60
2023-01-11T07:05:35.572Z,13.75
2023-01-11T07:08:02.544Z,19.27
2023-01-11T07:10:29.325Z,21.27
2023-01-11T07:12:55.999Z,22.52
2023-01-11T07:15:22.674Z,28.98
2023-01-11T07:17:54.981Z,21.27
2023-01-11T07:20:22.366Z,22.20
2023-01-11T07:22:49.305Z,17.90
2023-01-11T07:25:15.903Z,12.43
2023-01-11T07:27:42.597Z,9.88
2023-01-11T07:30:09.997Z,8.68
2023-01-11T07:32:36.768Z,7.15
2023-01-11T07:35:03.476Z,8.13
2023-01-11T07:37:32.767Z,6.13
2023-01-11T07:39:59.471Z,7.63
2023-01-11T07:42:44.872Z,9.85
2023-01-11T07:45:11.595Z,7.95
2023-01-11T07:47:38.368Z,8.70
2023-01-11T07:50:05.513Z,11.48
2023-01-11T07:52:32.196Z,32.88
2023-01-11T07:55:02.650Z,52.03
2023-01-11T07:57:30.279Z,30.52
2023-01-11T07:59:56.937Z,31.98
2023-01-11T08:02:23.721Z,31.85
2023-01-11T08:04:50.569Z,33.60
2023-01-11T08:07:17.129Z,27.83
2023-01-11T08:09:43.764Z,17.15
2023-01-11T08:12:28.710Z,15.32
2023-01-11T08:14:55.490Z,12.10
2023-01-11T08:17:22.205Z,8.85
2023-01-11T08:19:48.867Z,8.25
2023-01-11T08:22:15.555Z,7.65
2023-01-11T08:24:42.314Z,5.18
2023-01-11T08:27:09.043Z,39.75
2023-01-11T08:29:35.750Z,19.70
2023-01-11T08:32:02.444Z,8.93
2023-01-11T08:34:29.208Z,116.82
2023-01-11T08:37:01.916Z,5.95
2023-01-11T08:39:31.043Z,6.28
2023-01-11T08:42:01.185Z,3.78
2023-01-11T08:44:35.264Z,2.47
2023-01-11T08:47:02.996Z,12.13
2023-01-11T08:49:30.642Z,4.65
2023-01-11T08:51:57.433Z,21.33
2023-01-11T08:54:25.004Z,4.78
2023-01-11T08:56:51.693Z,35.88
2023-01-11T08:59:19.974Z,4.38
2023-01-11T09:01:47.308Z,4.13
2023-01-11T09:04:24.216Z,1.70
2023-01-11T09:06:52.944Z,2.25
2023-01-11T09:09:19.688Z,2.40
2023-01-11T09:11:55.236Z,4.13
2023-01-11T09:14:22.696Z,33.03
2023-01-11T09:16:49.398Z,7.57
2023-01-11T09:19:16.016Z,3.00
2023-01-11T09:21:43.198Z,12.88
2023-01-11T09:24:09.890Z,13.60
2023-01-11T09:26:37.500Z,14.40
2023-01-11T09:29:05.061Z,58.47
2023-01-11T09:31:31.814Z,10.23
2023-01-11T09:33:58.593Z,7.07
2023-01-11T09:36:27.800Z,6.53
2023-01-11T09:38:57.424Z,5.78
2023-01-11T09:41:27.319Z,2.53
2023-01-11T09:44:03.929Z,5.45
2023-01-11T09:46:30.652Z,4.22
2023-01-11T09:48:59.551Z,1.83
2023-01-11T09:51:35.895Z,1.80
2023-01-11T09:54:06.007Z,1.55
2023-01-11T09:56:51.233Z,40.50
2023-01-11T09:59:44.204Z,2.63
2023-01-11T10:02:24.677Z,1.58
2023-01-11T10:05:31.957Z,1.63
2023-01-11T10:18:30.325Z,2.97
2023-01-11T10:18:30.457Z,1.95
2023-01-11T10:19:57.956Z,2.33
2023-01-11T10:22:32.538Z,2.05
2023-01-11T10:25:11.609Z,3.33
2023-01-11T10:27:40.401Z,2.40
2023-01-11T10:30:35.906Z,1.95
2023-01-11T10:33:18.723Z,2.35
2023-01-11T10:36:06.040Z,2.22
2023-01-11T10:39:01.376Z,3.35
2023-01-11T10:41:57.535Z,3.45
2023-01-11T10:44:35.775Z,3.10
2023-01-11T10:47:02.488Z,3.00
2023-01-11T10:49:49.751Z,4.25
2023-01-11T10:52:29.324Z,12.57
2023-01-11T10:54:57.482Z,3.88
2023-01-11T10:57:27.107Z,14.77
2023-01-11T11:00:16.949Z,9.85
2023-01-11T11:02:49.317Z,5.35
2023-01-11T11:05:27.874Z,3.63
2023-01-11T11:08:31.981Z,8.10
2023-01-11T11:11:05.824Z,5.72
2023-01-11T11:13:38.503Z,4.55
2023-01-11T11:16:23.277Z,6.80
2023-01-11T11:18:54.459Z,5.82
2023-01-11T11:21:28.506Z,5.80
2023-01-11T11:26:23.246Z,13.00
2023-01-11T11:29:01.220Z,18.70
2023-01-11T11:31:28.526Z,16.63
2023-01-11T11:33:55.232Z,8.93
2023-01-11T11:36:21.938Z,7.90
2023-01-11T11:39:18.863Z,7.35
2023-01-11T11:42:07.065Z,4.82
2023-01-11T11:44:33.811Z,6.93
2023-01-11T11:47:05.419Z,5.15
2023-01-11T11:49:36.235Z,5.15
2023-01-11T11:52:23.709Z,4.88
2023-01-11T11:54:52.934Z,6.85
2023-01-11T11:57:19.515Z,9.40
2023-01-11T11:59:47.802Z,8.10
2023-01-11T12:02:26.483Z,15.77
2023-01-11T12:04:53.262Z,8.07
2023-01-11T12:07:21.135Z,5.80
2023-01-11T12:09:57.564Z,3.28
2023-01-11T12:12:27.369Z,4.25
2023-01-11T12:15:15.967Z,5.03
2023-01-11T12:17:42.683Z,4.85
2023-01-11T12:20:21.332Z,13.15
2023-01-11T12:22:48.615Z,5.97
2023-01-11T12:25:15.336Z,4.63
2023-01-11T12:28:01.363Z,11.95
2023-01-11T12:30:52.172Z,4.85
2023-01-11T12:33:44.407Z,2.17
2023-01-11T12:36:32.721Z,4.72
2023-01-11T12:39:17.968Z,5.97
2023-01-11T12:42:26.142Z,6.68
2023-01-11T12:45:04.762Z,7.32
2023-01-11T12:47:40.568Z,5.10
2023-01-11T12:50:25.022Z,4.30
2023-01-11T12:53:00.714Z,5.72
2023-01-11T12:55:58.060Z,3.15
2023-01-11T12:58:57.557Z,6.55
2023-01-11T13:01:39.304Z,7.20
2023-01-11T13:04:40.686Z,10.18
2023-01-11T13:07:21.066Z,4.88
2023-01-11T13:10:06.622Z,7.85
2023-01-11T13:12:49.372Z,4.38
2023-01-11T13:15:21.444Z,5.03
2023-01-11T13:17:51.815Z,4.78
2023-01-11T13:20:27.439Z,4.80
2023-01-11T13:23:26.041Z,4.45
2023-01-11T13:25:52.784Z,3.17
2023-01-11T13:28:23.890Z,4.22
2023-01-11T13:30:50.915Z,5.80
2023-01-11T13:33:20.733Z,8.23
2023-01-11T13:36:23.131Z,7.95
2023-01-11T13:38:56.584Z,4.72
2023-01-11T13:41:25.820Z,6.65
2023-01-11T13:44:06.811Z,7.63
2023-01-11T13:46:48.079Z,9.18
2023-01-11T13:49:18.456Z,8.90
2023-01-11T13:51:58.765Z,6.43
2023-01-11T13:54:50.409Z,5.70
2023-01-11T13:57:57.079Z,6.70
2023-01-11T14:00:38.708Z,10.57
2023-01-11T14:03:11.386Z,10.95
2023-01-11T14:06:03.109Z,7.15
2023-01-11T14:09:08.224Z,11.60
2023-01-11T14:11:44.537Z,11.55
2023-01-11T14:14:29.535Z,10.52
2023-01-11T14:17:02.409Z,13.07
2023-01-11T14:19:46.420Z,13.45
2023-01-11T14:22:20.576Z,12.05
2023-01-11T14:25:05.648Z,11.27
2023-01-11T14:28:09.775Z,23.33
2023-01-11T14:31:04.522Z,12.73
2023-01-11T14:33:37.176Z,18.50
2023-01-11T14:36:03.767Z,9.75
2023-01-11T14:39:06.338Z,6.03
2023-01-11T14:41:41.925Z,6.18
2023-01-11T14:44:18.000Z,5.90
2023-01-11T14:47:00.851Z,6.75
2023-01-11T14:49:51.792Z,3.90
2023-01-11T14:52:31.121Z,5.18
2023-01-11T14:55:07.000Z,7.20
2023-01-11T14:57:41.204Z,9.30
2023-01-11T15:00:19.837Z,6.65
2023-01-11T15:02:47.219Z,7.78
2023-01-11T15:05:44.982Z,5.30
2023-01-11T15:08:14.702Z,6.72
2023-01-11T15:10:55.804Z,15.98
2023-01-11T15:13:49.972Z,21.63
2023-01-11T15:16:38.020Z,49.20
2023-01-11T15:19:09.501Z,21.73
2023-01-11T15:21:41.020Z,69.60
2023-01-11T15:24:18.513Z,58.92
2023-01-11T15:26:48.498Z,273.00
2023-01-11T15:29:41.858Z,136.55
2023-01-11T15:32:33.198Z,20.95
2023-01-11T15:35:31.567Z,19.92
2023-01-11T15:38:07.493Z,11.15
2023-01-11T15:40:36.880Z,5.90
2023-01-11T15:43:12.569Z,15.35
2023-01-11T15:46:16.703Z,7.57
2023-01-11T15:48:59.797Z,4.53
2023-01-11T15:51:26.332Z,3.20
2023-01-11T15:54:01.293Z,3.92
2023-01-11T15:56:31.459Z,5.85
2023-01-11T15:59:19.914Z,4.50
2023-01-11T16:02:08.067Z,7.68
2023-01-11T16:05:06.269Z,8.60
2023-01-11T16:07:54.852Z,51.78
2023-01-11T16:10:59.174Z,4.70
2023-01-11T16:13:37.956Z,4.95
2023-01-11T16:16:26.877Z,11.18
2023-01-11T16:18:57.979Z,7.85
2023-01-11T16:21:31.765Z,8.45
2023-01-11T16:23:58.512Z,12.60
2023-01-11T16:26:25.230Z,15.95
2023-01-11T16:28:54.810Z,39.47
2023-01-11T16:31:21.542Z,29.10
2023-01-11T16:33:49.819Z,16.73
2023-01-11T16:36:21.292Z,33.00
2023-01-11T16:39:00.045Z,33.63
2023-01-11T16:41:28.588Z,39.67
2023-01-11T16:44:06.319Z,26.38
2023-01-11T16:47:03.998Z,22.48
2023-01-11T16:49:30.603Z,32.15
2023-01-11T16:52:00.432Z,30.35
2023-01-11T16:54:31.812Z,34.80
2023-01-11T16:56:59.455Z,46.30
2023-01-11T16:59:30.527Z,45.22
2023-01-11T17:01:59.101Z,64.80
2023-01-11T17:04:30.689Z,43.17
2023-01-11T17:06:58.100Z,41.88
2023-01-11T17:09:26.026Z,42.83
2023-01-11T17:11:52.909Z,55.17
2023-01-11T17:14:56.928Z,106.53
2023-01-11T17:17:23.625Z,75.80
2023-01-11T17:19:50.640Z,59.30
2023-01-11T17:22:22.528Z,25.98
2023-01-11T17:25:00.266Z,47.50
2023-01-11T17:27:35.736Z,38.45
2023-01-11T17:30:02.850Z,40.50
2023-01-11T17:32:37.162Z,37.17
2023-01-11T17:35:11.113Z,43.42
2023-01-11T17:40:04.580Z,41.78
2023-01-11T17:42:49.787Z,48.90
2023-01-11T17:45:23.898Z,32.15
2023-01-11T17:47:51.824Z,24.23
2023-01-11T17:50:22.504Z,21.77
2023-01-11T17:52:54.687Z,23.77
2023-01-11T17:55:23.257Z,19.70
2023-01-11T17:58:08.556Z,21.90
2023-01-11T18:00:35.334Z,39.97
2023-01-11T18:03:10.628Z,37.72
2023-01-11T18:05:37.263Z,41.65
2023-01-11T18:08:09.647Z,63.90
2023-01-11T18:10:38.164Z,45.10
2023-01-11T18:13:04.788Z,89.15
2023-01-11T18:15:34.170Z,127.40
2023-01-11T18:18:01.053Z,83.18
2023-01-11T18:20:40.693Z,76.35
2023-01-11T18:23:18.779Z,65.85
2023-01-11T18:25:46.151Z,59.03
2023-01-11T18:28:20.919Z,81.65
2023-01-11T18:30:54.450Z,34.08
2023-01-11T18:33:23.398Z,31.73
2023-01-11T18:35:51.910Z,30.92
2023-01-11T18:38:20.044Z,55.55
2023-01-11T18:40:47.124Z,43.72
2023-01-11T18:43:13.844Z,45.30
2023-01-11T18:45:41.349Z,33.35
2023-01-11T18:48:12.072Z,36.30
2023-01-11T18:50:39.259Z,43.97
2023-01-11T18:53:05.958Z,38.95
2023-01-11T18:55:32.581Z,31.25
2023-01-11T18:57:59.257Z,35.53
2023-01-11T19:00:26.091Z,31.08
2023-01-11T19:02:52.704Z,28.45
2023-01-11T19:05:19.358Z,28.48
2023-01-11T19:07:46.096Z,28.10
2023-01-11T19:10:17.548Z,34.20
2023-01-11T19:12:44.807Z,20.10
2023-01-11T19:15:12.476Z,20.55
2023-01-11T19:17:39.363Z,18.65
2023-01-11T19:20:09.143Z,18.85
2023-01-11T19:22:37.013Z,18.50
2023-01-11T19:25:03.989Z,17.98
2023-01-11T19:27:30.672Z,18.05
2023-01-11T19:29:58.222Z,15.13
2023-01-11T19:32:25.841Z,17.98
2023-01-11T19:34:53.042Z,15.88
2023-01-11T19:37:19.727Z,14.88
2023-01-11T19:39:46.539Z,13.85
2023-01-11T19:42:13.210Z,13.85
2023-01-11T19:44:40.056Z,14.70
2023-01-11T19:47:12.564Z,12.68
2023-01-11T19:49:40.190Z,15.13
2023-01-11T19:52:13.269Z,24.98
2023-01-11T19:54:43.796Z,19.02
2023-01-11T19:57:15.524Z,17.20
2023-01-11T19:59:42.330Z,14.25
2023-01-11T20:02:13.596Z,14.68
2023-01-11T20:04:40.791Z,15.68
2023-01-11T20:07:07.989Z,13.10
2023-01-11T20:09:37.520Z,12.93
2023-01-11T20:12:08.370Z,31.75
2023-01-11T20:14:35.298Z,22.27
2023-01-11T20:17:02.184Z,20.13
2023-01-11T20:19:28.990Z,31.33
2023-01-11T20:21:56.572Z,40.13
2023-01-11T20:24:29.706Z,63.63
2023-01-11T20:26:57.597Z,73.93
2023-01-11T20:29:24.257Z,44.03
2023-01-11T20:31:51.015Z,42.22
2023-01-11T20:34:17.862Z,31.13
2023-01-11T20:36:44.649Z,29.17
2023-01-11T20:39:11.387Z,28.13
2023-01-11T20:41:47.033Z,31.75
2023-01-11T20:44:16.152Z,37.08
2023-01-11T20:46:43.062Z,47.97
2023-01-11T20:49:09.721Z,19.95
2023-01-11T20:51:36.573Z,18.08
2023-01-11T20:54:04.401Z,17.60
2023-01-11T20:56:31.145Z,14.43
2023-01-11T20:58:57.789Z,15.93
2023-01-11T21:01:27.418Z,14.23
2023-01-11T21:04:01.808Z,16.10
2023-01-11T21:06:28.792Z,18.67
2023-01-11T21:08:56.327Z,23.00
2023-01-11T21:11:23.108Z,27.13
2023-01-11T21:13:53.528Z,35.08
2023-01-11T21:16:20.540Z,40.28
2023-01-11T21:18:47.338Z,29.88
2023-01-11T21:21:17.844Z,33.42
2023-01-11T21:23:45.418Z,38.15
2023-01-11T21:26:12.539Z,27.65
2023-01-11T21:28:39.955Z,24.58
2023-01-11T21:31:07.173Z,21.35
2023-01-11T21:33:33.958Z,22.13
2023-01-11T21:36:04.648Z,19.10
2023-01-11T21:38:32.194Z,33.35
2023-01-11T21:41:09.188Z,59.55
2023-01-11T21:43:36.036Z,22.85
2023-01-11T21:46:03.156Z,24.90
2023-01-11T21:48:29.853Z,26.00
2023-01-11T21:50:56.667Z,25.10
2023-01-11T21:53:23.361Z,77.43
2023-01-11T21:55:50.052Z,35.05
2023-01-11T21:58:19.811Z,15.75
2023-01-11T22:00:46.575Z,26.00
2023-01-11T22:03:13.231Z,31.77
2023-01-11T22:05:39.966Z,31.73
2023-01-11T22:08:06.658Z,18.48
2023-01-11T22:10:33.805Z,17.35
2023-01-11T22:13:00.662Z,15.27
2023-01-11T22:15:27.300Z,12.48
2023-01-11T22:17:54.043Z,14.63
2023-01-11T22:20:20.676Z,15.75
2023-01-11T22:22:47.385Z,52.90
2023-01-11T22:25:14.039Z,82.07
2023-01-11T22:27:40.998Z,66.93
2023-01-11T22:30:08.443Z,35.53
2023-01-11T22:32:35.131Z,35.83
2023-01-11T22:35:01.799Z,47.20
2023-01-11T22:37:28.491Z,42.83
2023-01-11T22:39:55.111Z,12.82
2023-01-11T22:42:21.800Z,12.35
2023-01-11T22:44:48.643Z,11.27
2023-01-11T22:47:15.454Z,13.48
2023-01-11T22:49:42.065Z,14.45
2023-01-11T22:52:08.757Z,11.77
2023-01-11T22:54:35.562Z,10.15
2023-01-11T22:57:02.212Z,12.25
2023-01-11T22:59:28.936Z,11.90
2023-01-11T23:01:55.580Z,15.52
2023-01-11T23:04:22.341Z,14.30
2023-01-11T23:06:49.119Z,14.25
2023-01-11T23:09:16.869Z,16.55
2023-01-11T23:12:02.383Z,15.70
2023-01-11T23:14:30.219Z,15.18
2023-01-11T23:16:59.282Z,18.33
2023-01-11T23:19:25.908Z,20.23
2023-01-11T23:21:52.649Z,15.73
2023-01-11T23:24:19.249Z,14.35
2023-01-11T23:26:46.188Z,17.52
2023-01-11T23:29:13.102Z,14.50
2023-01-11T23:31:39.863Z,25.75
2023-01-11T23:34:09.503Z,28.05
2023-01-11T23:36:37.699Z,28.10
2023-01-11T23:39:05.577Z,22.48
2023-01-11T23:41:50.742Z,28.40
2023-01-11T23:44:17.614Z,23.80
2023-01-11T23:47:03.567Z,18.33
2023-01-11T23:49:30.828Z,29.65
2023-01-11T23:51:57.590Z,20.88
2023-01-11T23:54:29.279Z,22.13
2023-01-11T23:56:56.483Z,17.33
2023-01-11T23:59:23.095Z,22.40
